Аэропорт
Орск (UWOR)

 UWOR / OSW
ЗЦ Москва
Самара (UWWW)
Самара (UWWW)
 51.07250, 58.59560  / 909 ft

 UWOR 201900Z 27007MPS 7000 -SN OVC009 M03/M04 Q1015 R25/820245 NOSIG RMK QFE737/0983
 TAF UWOR 201357Z 2015/2024 25008G14MPS 3100 -SN BLSN OVC009 TXM03/2015Z TNM06/2021Z TEMPO 2015/2024 27007G12MPS 0400 FZDZ FZFG VV002
АИП UWOR
показать схемы

 

Аэропорт Орск (IATA: OSW, ICAO: UWOR) — международный аэропорт федерального значения города Орска Оренбургской области. Аэропорт находится в 16 километрах от центра города Орск.

Аэродром интересен тем, что приводные радиостанции при заходе на посадку с юго-западного направления находятся на территории Республики Казахстан.

Превышение КТА: 277 м

Магнитное склонение аэродрома: +10°

Местное время: UTC +5

Регламент работы: круглосуточно

 

Информация о ВПП и навигационном оборудовании:

ВПП Размеры, м Hпор, м МПУ взлета/посадки Освещение ВПП ДПРМ БПРМ ILS
07 2900×42 277 066° - 385 (SF) 780 (S) -
25 2900×42 265 246° ОМИ 385 (OR) 780 (O) 108.100 (IOR)

 

Средства связи ОВД:

UWOR_TWR - Орск-Вышка - 122.700

UWOR_GND - Орск-Перрон - 118.000

 



2019 © VATRUS division (Privacy Policy)